Time;durP1;ratioP1;P1;durP2;ratioP2;P2;SDS_P1;SDS_P2;PMS_P1;PMS_P2;Temp;Humidity;BMP_temperature;BMP_pressure;BME280_temperature;BME280_humidity;BME280_pressure;Samples;Min_cycle;Max_cycle;Signal;HPM_P1;HPM_P2
2023/11/05 00:00:00;;;;;;;;;;;;;;;;;;5077275;28;19912;-73
2023/11/05 00:02:26;;;;;;;;;;;;;;;;;;5095634;28;19912;-73
2023/11/05 00:04:52;;;;;;;;;;;;;;;;;;5095318;28;19909;-74
2023/11/05 00:07:18;;;;;;;;;;;;;;;;;;5095474;28;19961;-74
2023/11/05 00:09:44;;;;;;;;;;;;;;;;;;5094728;28;19912;-74
2023/11/05 00:12:10;;;;;;;;;;;;;;;;;;5095233;28;19957;-74
2023/11/05 00:14:36;;;;;;;;;;;;;;;;;;5094332;28;20015;-73
2023/11/05 00:17:03;;;;;;;;;;;;;;;;;;5094710;28;19912;-73
2023/11/05 00:19:29;;;;;;;;;;;;;;;;;;5076932;28;19912;-74
2023/11/05 00:21:55;;;;;;;;;;;;;;;;;;5095038;28;20003;-74
2023/11/05 00:24:21;;;;;;;;;;;;;;;;;;5094732;28;19908;-74
2023/11/05 00:26:46;;;;;;;;;;;;;;;;;;5094919;28;19947;-74
2023/11/05 00:29:14;;;;;;;;;;;;;;;;;;5094603;28;20041;-73
2023/11/05 00:31:40;;;;;;;;;;;;;;;;;;5076299;28;19942;-74
2023/11/05 00:34:06;;;;;;;;;;;;;;;;;;5094767;28;19919;-74
2023/11/05 00:36:32;;;;;;;;;;;;;;;;;;5095112;28;20279;-74
2023/11/05 00:38:58;;;;;;;;;;;;;;;;;;5076080;28;20309;-74
2023/11/05 00:41:24;;;;;;;;;;;;;;;;;;5094733;28;19912;-74
2023/11/05 00:43:50;;;;;;;;;;;;;;;;;;5094629;28;19968;-74
2023/11/05 00:46:17;;;;;;;;;;;;;;;;;;5094232;28;19912;-74
2023/11/05 00:48:43;;;;;;;;;;;;;;;;;;5094551;28;19908;-74
2023/11/05 00:51:09;;;;;;;;;;;;;;;;;;5094458;28;19916;-74
2023/11/05 00:53:35;;;;;;;;;;;;;;;;;;5094105;28;19954;-74
2023/11/05 00:56:01;;;;;;;;;;;;;;;;;;5094414;28;19959;-74
2023/11/05 00:58:27;;;;;;;;;;;;;;;;;;5094354;28;19912;-73
2023/11/05 01:00:53;;;;;;;;;;;;;;;;;;5093967;28;19915;-74
2023/11/05 01:03:19;;;;;;;;;;;;;;;;;;5094342;28;20045;-73
2023/11/05 01:05:45;;;;;;;;;;;;;;;;;;5093911;28;19909;-74
2023/11/05 01:08:11;;;;;;;;;;;;;;;;;;5094252;28;19908;-73
2023/11/05 01:10:36;;;;;;;;;;;;;;;;;;5094116;28;20417;-73
2023/11/05 01:13:02;;;;;;;;;;;;;;;;;;5094036;28;19909;-73
2023/11/05 01:15:30;;;;;;;;;;;;;;;;;;5094117;28;19999;-73
2023/11/05 01:17:56;;;;;;;;;;;;;;;;;;5094403;28;19954;-73
2023/11/05 01:20:22;;;;;;;;;;;;;;;;;;5093636;28;19912;-73
2023/11/05 01:22:48;;;;;;;;;;;;;;;;;;5094018;28;19943;-74
2023/11/05 01:25:14;;;;;;;;;;;;;;;;;;5093842;28;19912;-74
2023/11/05 01:27:40;;;;;;;;;;;;;;;;;;5093556;28;19909;-74
2023/11/05 01:30:06;;;;;;;;;;;;;;;;;;5093637;28;19947;-73
2023/11/05 01:32:32;;;;;;;;;;;;;;;;;;5094007;28;20352;-73
2023/11/05 01:34:59;;;;;;;;;;;;;;;;;;5093597;28;19909;-74
2023/11/05 01:37:25;;;;;;;;;;;;;;;;;;5094014;28;20003;-73
2023/11/05 01:39:51;;;;;;;;;;;;;;;;;;5093862;28;20059;-72
2023/11/05 01:42:17;;;;;;;;;;;;;;;;;;5093634;28;19912;-72
2023/11/05 01:44:43;;;;;;;;;;;;;;;;;;5094251;28;20007;-72
2023/11/05 01:47:09;;;;;;;;;;;;;;;;;;5093859;28;19962;-72
2023/11/05 01:49:35;;;;;;;;;;;;;;;;;;5093413;28;20326;-72
2023/11/05 01:52:01;;;;;;;;;;;;;;;;;;5093753;28;19912;-72
2023/11/05 01:54:27;;;;;;;;;;;;;;;;;;5093690;28;19912;-73
2023/11/05 01:56:53;;;;;;;;;;;;;;;;;;5075127;28;20000;-73
2023/11/05 01:59:19;;;;;;;;;;;;;;;;;;5093605;28;19909;-72
2023/11/05 02:01:45;;;;;;;;;;;;;;;;;;5093760;28;19915;-72
2023/11/05 02:04:11;;;;;;;;;;;;;;;;;;5093228;28;19908;-73
2023/11/05 02:06:37;;;;;;;;;;;;;;;;;;5093694;28;19960;-73
2023/11/05 02:09:03;;;;;;;;;;;;;;;;;;5093308;28;19915;-73
2023/11/05 02:11:29;;;;;;;;;;;;;;;;;;5093488;28;19923;-73
2023/11/05 02:13:55;;;;;;;;;;;;;;;;;;5093548;28;19908;-72
2023/11/05 02:16:21;;;;;;;;;;;;;;;;;;5093179;28;20004;-73
2023/11/05 02:18:47;;;;;;;;;;;;;;;;;;5093699;28;19913;-73
2023/11/05 02:21:13;;;;;;;;;;;;;;;;;;5075347;28;19919;-73
2023/11/05 02:23:39;;;;;;;;;;;;;;;;;;5074920;28;19914;-73
2023/11/05 02:26:05;;;;;;;;;;;;;;;;;;5093455;28;19914;-74
2023/11/05 02:28:31;;;;;;;;;;;;;;;;;;5093445;28;19908;-73
2023/11/05 02:30:57;;;;;;;;;;;;;;;;;;5092783;28;20011;-73
2023/11/05 02:33:23;;;;;;;;;;;;;;;;;;5093429;28;19915;-73
2023/11/05 02:35:49;;;;;;;;;;;;;;;;;;5093346;28;19908;-73
2023/11/05 02:38:15;;;;;;;;;;;;;;;;;;5095018;28;19908;-73
2023/11/05 02:40:41;;;;;;;;;;;;;;;;;;5097032;28;19974;-73
2023/11/05 02:43:07;;;;;;;;;;;;;;;;;;5096938;28;19995;-73
2023/11/05 02:45:33;;;;;;;;;;;;;;;;;;5096483;28;19959;-73
2023/11/05 02:47:59;;;;;;;;;;;;;;;;;;5097116;28;19909;-73
2023/11/05 02:50:25;;;;;;;;;;;;;;;;;;5096698;28;19923;-73
2023/11/05 02:52:51;;;;;;;;;;;;;;;;;;5096356;28;19908;-73
2023/11/05 02:55:17;;;;;;;;;;;;;;;;;;5096705;28;19934;-73
2023/11/05 02:57:43;;;;;;;;;;;;;;;;;;5096759;28;20433;-73
2023/11/05 03:00:13;;;;;;;;;;;;;;;;;;5096281;28;19908;-73
2023/11/05 03:02:39;;;;;;;;;;;;;;;;;;5096721;28;19914;-73
2023/11/05 03:05:05;;;;;;;;;;;;;;;;;;5096529;28;20024;-73
2023/11/05 03:07:31;;;;;;;;;;;;;;;;;;5096143;28;19914;-74
2023/11/05 03:09:57;;;;;;;;;;;;;;;;;;5096348;28;19920;-73
2023/11/05 03:12:23;;;;;;;;;;;;;;;;;;5077808;28;19908;-73
2023/11/05 03:14:50;;;;;;;;;;;;;;;;;;5096430;28;19934;-73
2023/11/05 03:17:16;;;;;;;;;;;;;;;;;;5078191;28;19908;-73
2023/11/05 03:19:42;;;;;;;;;;;;;;;;;;5096008;28;19915;-73
2023/11/05 03:22:08;;;;;;;;;;;;;;;;;;5096127;28;19941;-73
2023/11/05 03:24:34;;;;;;;;;;;;;;;;;;5096166;28;19908;-73
2023/11/05 03:27:00;;;;;;;;;;;;;;;;;;5095729;28;20429;-73
2023/11/05 03:29:26;;;;;;;;;;;;;;;;;;5095898;28;20331;-73
2023/11/05 03:31:52;;;;;;;;;;;;;;;;;;5077905;28;20288;-73
2023/11/05 03:34:18;;;;;;;;;;;;;;;;;;5095568;28;20386;-73
2023/11/05 03:36:44;;;;;;;;;;;;;;;;;;5095939;28;19915;-74
2023/11/05 03:39:10;;;;;;;;;;;;;;;;;;5095885;28;19994;-74
2023/11/05 03:41:36;;;;;;;;;;;;;;;;;;5095456;28;19908;-74
2023/11/05 03:44:02;;;;;;;;;;;;;;;;;;5095796;28;19912;-73
2023/11/05 03:46:28;;;;;;;;;;;;;;;;;;5095899;28;19915;-73
2023/11/05 03:48:54;;;;;;;;;;;;;;;;;;5095339;28;19908;-73
2023/11/05 03:51:19;;;;;;;;;;;;;;;;;;5095804;28;19916;-73
2023/11/05 03:53:45;;;;;;;;;;;;;;;;;;5095598;28;19915;-73
2023/11/05 03:56:11;;;;;;;;;;;;;;;;;;5095233;28;19915;-73
2023/11/05 03:58:37;;;;;;;;;;;;;;;;;;5095529;28;20329;-74
2023/11/05 04:01:03;;;;;;;;;;;;;;;;;;5095539;28;20260;-74
2023/11/05 04:03:30;;;;;;;;;;;;;;;;;;5095072;28;19943;-74
2023/11/05 04:05:56;;;;;;;;;;;;;;;;;;5077266;28;20367;-74
2023/11/05 04:08:22;;;;;;;;;;;;;;;;;;5095316;28;19909;-74
2023/11/05 04:10:48;;;;;;;;;;;;;;;;;;5094836;28;19923;-74
2023/11/05 04:13:14;;;;;;;;;;;;;;;;;;5095226;28;19966;-74
2023/11/05 04:15:41;;;;;;;;;;;;;;;;;;5094892;28;20303;-74
2023/11/05 04:18:07;;;;;;;;;;;;;;;;;;5095187;28;19947;-73
2023/11/05 04:20:32;;;;;;;;;;;;;;;;;;5095164;28;19908;-74
2023/11/05 04:22:58;;;;;;;;;;;;;;;;;;5094681;28;20421;-73
2023/11/05 04:25:25;;;;;;;;;;;;;;;;;;5076898;28;20416;-74
2023/11/05 04:27:51;;;;;;;;;;;;;;;;;;5095455;28;19908;-74
2023/11/05 04:30:17;;;;;;;;;;;;;;;;;;5094554;28;20390;-74
2023/11/05 04:32:43;;;;;;;;;;;;;;;;;;5076708;28;20375;-74
2023/11/05 04:35:09;;;;;;;;;;;;;;;;;;5094987;28;19915;-74
2023/11/05 04:37:35;;;;;;;;;;;;;;;;;;5076289;28;19908;-74
2023/11/05 04:40:04;;;;;;;;;;;;;;;;;;5094804;28;19908;-74
2023/11/05 04:42:30;;;;;;;;;;;;;;;;;;5095017;28;19914;-74
2023/11/05 04:44:57;;;;;;;;;;;;;;;;;;5094616;28;20352;-74
2023/11/05 04:47:24;;;;;;;;;;;;;;;;;;5094599;28;19909;-74
2023/11/05 04:49:49;;;;;;;;;;;;;;;;;;5094516;28;19919;-74
2023/11/05 04:52:15;;;;;;;;;;;;;;;;;;5094185;28;19995;-74
2023/11/05 04:54:41;;;;;;;;;;;;;;;;;;5094467;28;19908;-74
2023/11/05 04:57:07;;;;;;;;;;;;;;;;;;5094494;28;19962;-74
2023/11/05 04:59:34;;;;;;;;;;;;;;;;;;5093860;28;19908;-74
2023/11/05 05:02:00;;;;;;;;;;;;;;;;;;5094215;28;19908;-73
2023/11/05 05:04:26;;;;;;;;;;;;;;;;;;5094337;28;19913;-73
2023/11/05 05:06:52;;;;;;;;;;;;;;;;;;5094036;28;19943;-73
2023/11/05 05:09:18;;;;;;;;;;;;;;;;;;5094834;28;20343;-74
2023/11/05 05:11:44;;;;;;;;;;;;;;;;;;5094074;28;19923;-73
2023/11/05 05:14:10;;;;;;;;;;;;;;;;;;5076055;28;19931;-73
2023/11/05 05:16:36;;;;;;;;;;;;;;;;;;5094499;28;20368;-73
2023/11/05 05:19:02;;;;;;;;;;;;;;;;;;5093717;28;19961;-73
2023/11/05 05:21:28;;;;;;;;;;;;;;;;;;5094097;28;19908;-73
2023/11/05 05:23:54;;;;;;;;;;;;;;;;;;5094104;28;20364;-73
2023/11/05 05:26:20;;;;;;;;;;;;;;;;;;5093900;28;19975;-73
2023/11/05 05:28:47;;;;;;;;;;;;;;;;;;5075901;28;20384;-73
2023/11/05 05:31:13;;;;;;;;;;;;;;;;;;5093774;28;19945;-73
2023/11/05 05:33:39;;;;;;;;;;;;;;;;;;5093511;28;19942;-73
2023/11/05 05:36:05;;;;;;;;;;;;;;;;;;5094280;28;19908;-73
2023/11/05 05:38:31;;;;;;;;;;;;;;;;;;5093872;28;19908;-73
2023/11/05 05:40:57;;;;;;;;;;;;;;;;;;5075367;28;19912;-73
2023/11/05 05:43:23;;;;;;;;;;;;;;;;;;5093830;28;19908;-73
2023/11/05 05:45:49;;;;;;;;;;;;;;;;;;5094091;28;20023;-72
2023/11/05 05:48:15;;;;;;;;;;;;;;;;;;5093462;28;19909;-72
2023/11/05 05:50:41;;;;;;;;;;;;;;;;;;5093718;28;20263;-72
2023/11/05 05:53:07;;;;;;;;;;;;;;;;;;5093841;28;19912;-73
2023/11/05 05:55:33;;;;;;;;;;;;;;;;;;5093384;28;19908;-73
2023/11/05 05:58:00;;;;;;;;;;;;;;;;;;5093666;28;19915;-73
2023/11/05 06:00:26;;;;;;;;;;;;;;;;;;5093788;28;20288;-73
2023/11/05 06:02:52;;;;;;;;;;;;;;;;;;5093326;28;19961;-73
2023/11/05 06:05:18;;;;;;;;;;;;;;;;;;5093874;28;19914;-73
2023/11/05 06:07:44;;;;;;;;;;;;;;;;;;5093628;28;20350;-73
2023/11/05 06:10:11;;;;;;;;;;;;;;;;;;5093177;28;19912;-73
2023/11/05 06:12:38;;;;;;;;;;;;;;;;;;5095159;28;19946;-73
2023/11/05 06:15:04;;;;;;;;;;;;;;;;;;5097199;28;20279;-73
2023/11/05 06:17:30;;;;;;;;;;;;;;;;;;5097469;28;19915;-73
2023/11/05 06:19:56;;;;;;;;;;;;;;;;;;5079310;28;20429;-74
2023/11/05 06:22:22;;;;;;;;;;;;;;;;;;5097003;28;20391;-73
2023/11/05 06:24:48;;;;;;;;;;;;;;;;;;5097808;28;19915;-73
2023/11/05 06:27:14;;;;;;;;;;;;;;;;;;5079106;28;19912;-73
2023/11/05 06:29:40;;;;;;;;;;;;;;;;;;5096503;28;19916;-73
2023/11/05 06:32:06;;;;;;;;;;;;;;;;;;5097195;28;19919;-71
2023/11/05 06:34:32;;;;;;;;;;;;;;;;;;5097134;28;19907;-72
2023/11/05 06:36:58;;;;;;;;;;;;;;;;;;5096667;28;19934;-73
2023/11/05 06:39:24;;;;;;;;;;;;;;;;;;5097112;28;19943;-73
2023/11/05 06:41:50;;;;;;;;;;;;;;;;;;5096981;28;19915;-73
2023/11/05 06:44:16;;;;;;;;;;;;;;;;;;5096680;28;19912;-72
2023/11/05 06:46:42;;;;;;;;;;;;;;;;;;5096962;28;20360;-73
2023/11/05 06:49:08;;;;;;;;;;;;;;;;;;5078570;28;20314;-73
2023/11/05 06:51:33;;;;;;;;;;;;;;;;;;5096365;28;19955;-73
2023/11/05 06:53:59;;;;;;;;;;;;;;;;;;5096741;28;19908;-73
2023/11/05 06:56:26;;;;;;;;;;;;;;;;;;5096724;28;19931;-74
2023/11/05 06:58:51;;;;;;;;;;;;;;;;;;5096413;28;19962;-74
2023/11/05 07:01:18;;;;;;;;;;;;;;;;;;5096618;28;19966;-74
2023/11/05 07:03:44;;;;;;;;;;;;;;;;;;5096624;28;19908;-74
2023/11/05 07:06:10;;;;;;;;;;;;;;;;;;5077990;28;19958;-74
2023/11/05 07:08:36;;;;;;;;;;;;;;;;;;5096416;28;20001;-74
2023/11/05 07:11:03;;;;;;;;;;;;;;;;;;5096307;28;19916;-73
2023/11/05 07:13:29;;;;;;;;;;;;;;;;;;5095958;28;20371;-73
2023/11/05 07:15:55;;;;;;;;;;;;;;;;;;5096557;28;19915;-73
2023/11/05 07:18:21;;;;;;;;;;;;;;;;;;5077720;28;19954;-74
2023/11/05 07:20:47;;;;;;;;;;;;;;;;;;5096265;28;20348;-74
2023/11/05 07:23:14;;;;;;;;;;;;;;;;;;5095838;28;19919;-73
2023/11/05 07:25:40;;;;;;;;;;;;;;;;;;5095835;28;19915;-74
2023/11/05 07:28:06;;;;;;;;;;;;;;;;;;5096175;28;19908;-75
2023/11/05 07:30:32;;;;;;;;;;;;;;;;;;5095937;28;19920;-74
2023/11/05 07:32:58;;;;;;;;;;;;;;;;;;5095525;28;20015;-73
2023/11/05 07:35:26;;;;;;;;;;;;;;;;;;5077773;28;19908;-74
2023/11/05 07:37:52;;;;;;;;;;;;;;;;;;5095939;28;19908;-74
2023/11/05 07:40:18;;;;;;;;;;;;;;;;;;5095638;28;20527;-74
2023/11/05 07:42:44;;;;;;;;;;;;;;;;;;5095848;28;20359;-74
2023/11/05 07:45:10;;;;;;;;;;;;;;;;;;5095768;28;19941;-73
2023/11/05 07:47:39;;;;;;;;;;;;;;;;;;5095385;28;19908;-73
2023/11/05 07:50:06;;;;;;;;;;;;;;;;;;5095619;28;19923;-73
2023/11/05 07:52:32;;;;;;;;;;;;;;;;;;5095734;28;19912;-74
2023/11/05 07:54:59;;;;;;;;;;;;;;;;;;5095221;28;20023;-74
2023/11/05 07:57:26;;;;;;;;;;;;;;;;;;5095491;28;19935;-74
2023/11/05 07:59:52;;;;;;;;;;;;;;;;;;5095493;28;19915;-74
2023/11/05 08:02:18;;;;;;;;;;;;;;;;;;5095027;28;19991;-73
2023/11/05 08:04:44;;;;;;;;;;;;;;;;;;5095377;28;20260;-73
2023/11/05 08:07:10;;;;;;;;;;;;;;;;;;5095364;28;19959;-73
2023/11/05 08:09:36;;;;;;;;;;;;;;;;;;5076754;28;19912;-73
2023/11/05 08:12:02;;;;;;;;;;;;;;;;;;5095312;28;19971;-73
2023/11/05 08:14:28;;;;;;;;;;;;;;;;;;5095221;28;19908;-72
2023/11/05 08:16:54;;;;;;;;;;;;;;;;;;5094698;28;19908;-73
2023/11/05 08:19:20;;;;;;;;;;;;;;;;;;5095092;28;19950;-73
2023/11/05 08:21:46;;;;;;;;;;;;;;;;;;5094750;28;20074;-74
2023/11/05 08:24:12;;;;;;;;;;;;;;;;;;5094993;28;19915;-73
2023/11/05 08:26:38;;;;;;;;;;;;;;;;;;5095019;28;20325;-74
2023/11/05 08:29:04;;;;;;;;;;;;;;;;;;5094334;28;19912;-73
2023/11/05 08:31:30;;;;;;;;;;;;;;;;;;5076642;28;19920;-74
2023/11/05 08:33:56;;;;;;;;;;;;;;;;;;5076599;28;19914;-74
2023/11/05 08:36:22;;;;;;;;;;;;;;;;;;5093696;28;19908;-74
2023/11/05 08:38:48;;;;;;;;;;;;;;;;;;5076639;28;19915;-73
2023/11/05 08:41:14;;;;;;;;;;;;;;;;;;5094611;28;19931;-73
2023/11/05 08:43:40;;;;;;;;;;;;;;;;;;5094274;28;19977;-74
2023/11/05 08:46:06;;;;;;;;;;;;;;;;;;5094649;28;20356;-74
2023/11/05 08:48:32;;;;;;;;;;;;;;;;;;5076293;28;20288;-74
2023/11/05 08:50:58;;;;;;;;;;;;;;;;;;5093971;28;19965;-73
2023/11/05 08:53:24;;;;;;;;;;;;;;;;;;5094459;28;19915;-73
2023/11/05 08:57:32;;;;;;;;;;;;;;;;;;5111823;27;19916;-74
2023/11/05 08:59:57;;;;;;;;;;;;;;;;;;5111752;28;19919;-74
2023/11/05 09:03:16;;;;;;;;;;;;;;;;;;5152890;27;20458;-72
2023/11/05 09:05:42;;;;;;;;;;;;;;;;;;5152501;27;19911;-72
2023/11/05 09:08:11;;;;;;;;;;;;;;;;;;5152839;27;19915;-72
2023/11/05 09:10:37;;;;;;;;;;;;;;;;;;5152832;27;19911;-72
2023/11/05 09:14:35;;;;;;;;;;;;;;;;;;5112498;27;19916;-72
2023/11/05 09:17:01;;;;;;;;;;;;;;;;;;5111660;28;19999;-73
2023/11/05 09:19:27;;;;;;;;;;;;;;;;;;5111199;28;19970;-72
2023/11/05 09:23:26;;;;;;;;;;;;;;;;;;5091792;27;20299;-73
2023/11/05 09:32:03;;;;;;;;;;;;;;;;;;5173588;27;20399;-73
2023/11/05 09:34:31;;;;;;;;;;;;;;;;;;5174178;27;20023;-75
2023/11/05 09:39:31;;;;;;;;;;;;;;;;;;5111381;27;19918;-73
2023/11/05 09:41:57;;;;;;;;;;;;;;;;;;5111681;28;20002;-73
2023/11/05 09:44:24;;;;;;;;;;;;;;;;;;5111417;28;19912;-73
2023/11/05 09:46:50;;;;;;;;;;;;;;;;;;5111183;28;19962;-72
2023/11/05 09:49:16;;;;;;;;;;;;;;;;;;5111585;28;19908;-73
2023/11/05 09:53:36;;;;;;;;;;;;;;;;;;5111792;27;19916;-75
2023/11/05 09:59:55;;;;;;;;;;;;;;;;;;5091660;27;19916;-74
2023/11/05 10:02:21;;;;;;;;;;;;;;;;;;5089684;28;19999;-74
2023/11/05 10:08:18;;;;;;;;;;;;;;;;;;5091278;28;19919;-74
2023/11/05 10:10:44;;;;;;;;;;;;;;;;;;5091356;28;20014;-74
2023/11/05 10:15:32;;;;;;;;;;;;;;;;;;5090984;28;19938;-73
2023/11/05 10:17:58;;;;;;;;;;;;;;;;;;5091553;28;19976;-73
2023/11/05 10:22:45;;;;;;;;;;;;;;;;;;5091154;27;19917;-74
2023/11/05 10:25:11;;;;;;;;;;;;;;;;;;5091393;28;19958;-73
2023/11/05 10:27:37;;;;;;;;;;;;;;;;;;5091278;28;19909;-74
2023/11/05 10:30:43;;;;;;;;;;;;;;;;;;5091800;27;19916;-73
2023/11/05 10:33:09;;;;;;;;;;;;;;;;;;5090064;28;19999;-74
2023/11/05 10:36:42;;;;;;;;;;;;;;;;;;5091210;28;20387;-73
2023/11/05 10:40:00;;;;;;;;;;;;;;;;;;5091805;28;19916;-76
2023/11/05 10:44:23;;;;;;;;;;;;;;;;;;5090967;27;19923;-73
2023/11/05 10:47:50;;;;;;;;;;;;;;;;;;5091662;27;19916;-73
2023/11/05 10:52:17;;;;;;;;;;;;;;;;;;5091463;27;19923;-73
2023/11/05 10:54:43;;;;;;;;;;;;;;;;;;5091312;28;20359;-74
2023/11/05 10:57:09;;;;;;;;;;;;;;;;;;5091027;28;19987;-73
2023/11/05 10:59:35;;;;;;;;;;;;;;;;;;5091327;28;20011;-73
2023/11/05 11:03:10;;;;;;;;;;;;;;;;;;5091949;28;20394;-72
2023/11/05 11:07:59;;;;;;;;;;;;;;;;;;5112334;27;20295;-73
2023/11/05 11:10:25;;;;;;;;;;;;;;;;;;5111424;28;20002;-73
2023/11/05 11:14:08;;;;;;;;;;;;;;;;;;5091923;27;19923;-72
2023/11/05 11:17:38;;;;;;;;;;;;;;;;;;5091227;28;19939;-73
2023/11/05 11:20:04;;;;;;;;;;;;;;;;;;5091245;28;19913;-72
2023/11/05 11:27:44;;;;;;;;;;;;;;;;;;5091345;27;19916;-73
2023/11/05 11:34:20;;;;;;;;;;;;;;;;;;5091499;27;20401;-73
2023/11/05 11:36:59;;;;;;;;;;;;;;;;;;5092077;27;19917;-73
2023/11/05 11:39:26;;;;;;;;;;;;;;;;;;5089657;28;19919;-73
2023/11/05 11:44:39;;;;;;;;;;;;;;;;;;5091723;27;19916;-73
2023/11/05 11:48:01;;;;;;;;;;;;;;;;;;5091646;28;19916;-72
2023/11/05 11:53:33;;;;;;;;;;;;;;;;;;5091334;27;19923;-72
2023/11/05 11:56:01;;;;;;;;;;;;;;;;;;5091265;28;20010;-73
2023/11/05 11:58:27;;;;;;;;;;;;;;;;;;5091243;28;19908;-72
2023/11/05 12:00:53;;;;;;;;;;;;;;;;;;5090795;28;19909;-73
2023/11/05 12:03:19;;;;;;;;;;;;;;;;;;5091165;28;19912;-72
2023/11/05 12:05:45;;;;;;;;;;;;;;;;;;5091096;28;19996;-73
2023/11/05 12:08:13;;;;;;;;;;;;;;;;;;5090541;28;19915;-73
2023/11/05 12:10:39;;;;;;;;;;;;;;;;;;5091120;28;19999;-73
2023/11/05 12:13:05;;;;;;;;;;;;;;;;;;5090950;28;19923;-73
2023/11/05 12:15:31;;;;;;;;;;;;;;;;;;5090691;28;19908;-73
2023/11/05 12:19:27;;;;;;;;;;;;;;;;;;5091512;27;19916;-72
2023/11/05 12:21:53;;;;;;;;;;;;;;;;;;5090939;28;19913;-72
2023/11/05 12:24:19;;;;;;;;;;;;;;;;;;5089998;28;19932;-72
2023/11/05 12:29:07;;;;;;;;;;;;;;;;;;5091263;27;19917;-72
2023/11/05 12:31:35;;;;;;;;;;;;;;;;;;5091590;28;19957;-72
2023/11/05 12:34:32;;;;;;;;;;;;;;;;;;5112272;27;20356;-72
2023/11/05 12:38:28;;;;;;;;;;;;;;;;;;5091887;28;20364;-73
2023/11/05 12:40:54;;;;;;;;;;;;;;;;;;5091344;28;20006;-73
2023/11/05 12:43:23;;;;;;;;;;;;;;;;;;5090927;28;19908;-73
2023/11/05 12:45:52;;;;;;;;;;;;;;;;;;5091370;28;20003;-74
2023/11/05 12:49:49;;;;;;;;;;;;;;;;;;5111408;27;19916;-73
2023/11/05 12:52:45;;;;;;;;;;;;;;;;;;5111837;27;20401;-73
2023/11/05 12:57:21;;;;;;;;;;;;;;;;;;5173554;27;19998;-73
2023/11/05 12:59:47;;;;;;;;;;;;;;;;;;5173740;27;19958;-74
2023/11/05 13:02:12;;;;;;;;;;;;;;;;;;5173669;27;19960;-74
2023/11/05 13:04:38;;;;;;;;;;;;;;;;;;5173295;27;20036;-74
2023/11/05 13:07:05;;;;;;;;;;;;;;;;;;5154906;27;19907;-74
2023/11/05 13:09:32;;;;;;;;;;;;;;;;;;5173546;27;19914;-74
2023/11/05 13:11:58;;;;;;;;;;;;;;;;;;5173124;27;19914;-74
2023/11/05 13:14:24;;;;;;;;;;;;;;;;;;5154773;27;19907;-74
2023/11/05 13:16:50;;;;;;;;;;;;;;;;;;5154826;27;20132;-74
2023/11/05 13:19:16;;;;;;;;;;;;;;;;;;5173055;27;19967;-73
2023/11/05 13:21:42;;;;;;;;;;;;;;;;;;5175049;27;19907;-74
2023/11/05 13:24:08;;;;;;;;;;;;;;;;;;5172921;27;19907;-74
2023/11/05 13:26:36;;;;;;;;;;;;;;;;;;5173105;27;19914;-74
2023/11/05 13:29:02;;;;;;;;;;;;;;;;;;5173095;27;19911;-73
2023/11/05 13:31:31;;;;;;;;;;;;;;;;;;5172959;27;20381;-73
2023/11/05 13:34:52;;;;;;;;;;;;;;;;;;5092148;27;19912;-74
2023/11/05 13:37:21;;;;;;;;;;;;;;;;;;5091381;28;20011;-74
2023/11/05 13:39:47;;;;;;;;;;;;;;;;;;5090900;28;19991;-75
2023/11/05 13:42:14;;;;;;;;;;;;;;;;;;5091257;28;20354;-74
2023/11/05 13:44:40;;;;;;;;;;;;;;;;;;5091185;28;19913;-74
2023/11/05 13:47:06;;;;;;;;;;;;;;;;;;5090784;28;19948;-73
2023/11/05 13:49:34;;;;;;;;;;;;;;;;;;5091132;28;20292;-74
2023/11/05 13:52:00;;;;;;;;;;;;;;;;;;5090990;28;19912;-74
2023/11/05 13:54:26;;;;;;;;;;;;;;;;;;5090593;28;19917;-73
2023/11/05 13:56:52;;;;;;;;;;;;;;;;;;5090970;28;20376;-75
2023/11/05 13:59:19;;;;;;;;;;;;;;;;;;5090471;28;20003;-75
2023/11/05 14:01:44;;;;;;;;;;;;;;;;;;5091115;28;19909;-74
2023/11/05 14:04:10;;;;;;;;;;;;;;;;;;5090762;28;20046;-73
2023/11/05 14:06:37;;;;;;;;;;;;;;;;;;5089085;28;19920;-75
2023/11/05 14:09:04;;;;;;;;;;;;;;;;;;5090732;28;19934;-74
2023/11/05 14:14:56;;;;;;;;;;;;;;;;;;5152629;27;19918;-72
2023/11/05 14:17:22;;;;;;;;;;;;;;;;;;5152823;27;19934;-72
2023/11/05 14:19:48;;;;;;;;;;;;;;;;;;5153358;27;19947;-72
2023/11/05 14:23:11;;;;;;;;;;;;;;;;;;5092030;27;19917;-72
2023/11/05 14:26:08;;;;;;;;;;;;;;;;;;5091850;28;19923;-73
2023/11/05 14:30:21;;;;;;;;;;;;;;;;;;5091818;28;20403;-73
2023/11/05 14:32:47;;;;;;;;;;;;;;;;;;5091452;28;20003;-73
2023/11/05 14:37:23;;;;;;;;;;;;;;;;;;5132579;27;19916;-73
2023/11/05 14:39:49;;;;;;;;;;;;;;;;;;5132214;28;20335;-73
2023/11/05 14:44:14;;;;;;;;;;;;;;;;;;5091842;27;19912;-72
2023/11/05 14:46:41;;;;;;;;;;;;;;;;;;5092130;28;20026;-72
2023/11/05 14:49:09;;;;;;;;;;;;;;;;;;5090805;28;19915;-72
2023/11/05 14:51:35;;;;;;;;;;;;;;;;;;5091144;28;20257;-72
2023/11/05 14:56:14;;;;;;;;;;;;;;;;;;5091376;27;19923;-73
2023/11/05 15:00:28;;;;;;;;;;;;;;;;;;5071420;28;19913;-73
2023/11/05 15:05:14;;;;;;;;;;;;;;;;;;5091886;27;19923;-73
2023/11/05 15:07:53;;;;;;;;;;;;;;;;;;5112544;27;19916;-73
2023/11/05 15:12:07;;;;;;;;;;;;;;;;;;5091807;27;19923;-72
2023/11/05 15:14:33;;;;;;;;;;;;;;;;;;5091604;28;20352;-72
2023/11/05 15:16:59;;;;;;;;;;;;;;;;;;5090755;28;19908;-72
2023/11/05 15:20:40;;;;;;;;;;;;;;;;;;5091927;27;19961;-73
2023/11/05 15:24:01;;;;;;;;;;;;;;;;;;5091517;27;19922;-73
2023/11/05 15:26:29;;;;;;;;;;;;;;;;;;5091230;28;20006;-73
2023/11/05 15:28:56;;;;;;;;;;;;;;;;;;5091062;28;19908;-73
2023/11/05 15:33:53;;;;;;;;;;;;;;;;;;5111913;27;20383;-74
2023/11/05 15:37:20;;;;;;;;;;;;;;;;;;5152866;27;19998;-73
2023/11/05 15:40:14;;;;;;;;;;;;;;;;;;5091418;27;20386;-73
2023/11/05 15:42:42;;;;;;;;;;;;;;;;;;5091244;28;20003;-73
2023/11/05 15:46:26;;;;;;;;;;;;;;;;;;5111462;27;19916;-73
2023/11/05 15:48:53;;;;;;;;;;;;;;;;;;5111755;28;20010;-73
2023/11/05 15:51:20;;;;;;;;;;;;;;;;;;5110364;28;19930;-74
2023/11/05 15:53:46;;;;;;;;;;;;;;;;;;5109909;28;19934;-74
2023/11/05 15:58:50;;;;;;;;;;;;;;;;;;5111997;27;19916;-73
2023/11/05 16:01:33;;;;;;;;;;;;;;;;;;5132234;27;20371;-74
2023/11/05 16:03:59;;;;;;;;;;;;;;;;;;5132210;27;20010;-74
2023/11/05 16:06:25;;;;;;;;;;;;;;;;;;5131706;28;20381;-74
2023/11/05 16:10:55;;;;;;;;;;;;;;;;;;5092021;27;19938;-75
2023/11/05 16:15:33;;;;;;;;;;;;;;;;;;5132410;27;19924;-73
2023/11/05 16:17:58;;;;;;;;;;;;;;;;;;5132150;27;19916;-74
2023/11/05 16:20:24;;;;;;;;;;;;;;;;;;5131654;28;19958;-73
2023/11/05 16:22:50;;;;;;;;;;;;;;;;;;5132444;28;19955;-74
2023/11/05 16:27:03;;;;;;;;;;;;;;;;;;5091121;27;19916;-75
2023/11/05 16:29:29;;;;;;;;;;;;;;;;;;5091495;28;20008;-73
2023/11/05 16:31:55;;;;;;;;;;;;;;;;;;5091516;28;19962;-73
2023/11/05 16:34:21;;;;;;;;;;;;;;;;;;5090708;28;19909;-73
2023/11/05 16:36:47;;;;;;;;;;;;;;;;;;5090990;28;19908;-74
2023/11/05 16:39:13;;;;;;;;;;;;;;;;;;5091049;28;19955;-74
2023/11/05 16:41:39;;;;;;;;;;;;;;;;;;5090638;28;19908;-73
2023/11/05 16:44:05;;;;;;;;;;;;;;;;;;5091041;28;19909;-73
2023/11/05 16:46:49;;;;;;;;;;;;;;;;;;5092081;27;20383;-74
2023/11/05 16:49:15;;;;;;;;;;;;;;;;;;5091022;28;19913;-74
2023/11/05 16:51:44;;;;;;;;;;;;;;;;;;5089994;28;20386;-72
2023/11/05 16:54:10;;;;;;;;;;;;;;;;;;5091155;28;19915;-72
2023/11/05 16:56:37;;;;;;;;;;;;;;;;;;5090663;28;19909;-74
2023/11/05 17:03:15;;;;;;;;;;;;;;;;;;5091308;27;19922;-72
2023/11/05 17:05:41;;;;;;;;;;;;;;;;;;5091435;28;20350;-72
2023/11/05 17:08:07;;;;;;;;;;;;;;;;;;5089969;28;19912;-72
2023/11/05 17:10:34;;;;;;;;;;;;;;;;;;5090749;28;19958;-73
2023/11/05 17:13:00;;;;;;;;;;;;;;;;;;5091161;28;19908;-72
2023/11/05 17:15:26;;;;;;;;;;;;;;;;;;5091030;28;19916;-72
2023/11/05 17:18:53;;;;;;;;;;;;;;;;;;5132843;27;20279;-73
2023/11/05 17:21:21;;;;;;;;;;;;;;;;;;5132254;28;20002;-73
2023/11/05 17:23:47;;;;;;;;;;;;;;;;;;5131674;28;19912;-73
2023/11/05 17:26:13;;;;;;;;;;;;;;;;;;5132269;28;19918;-73
2023/11/05 17:28:39;;;;;;;;;;;;;;;;;;5113673;28;19958;-71
2023/11/05 17:31:05;;;;;;;;;;;;;;;;;;5114237;28;19952;-72
2023/11/05 17:33:31;;;;;;;;;;;;;;;;;;5131862;28;19953;-73
2023/11/05 17:35:57;;;;;;;;;;;;;;;;;;5131872;28;19911;-73
2023/11/05 17:38:23;;;;;;;;;;;;;;;;;;5131352;28;19955;-73
2023/11/05 17:40:50;;;;;;;;;;;;;;;;;;5131748;28;19952;-73
2023/11/05 17:43:16;;;;;;;;;;;;;;;;;;5131707;28;19998;-73
2023/11/05 17:47:03;;;;;;;;;;;;;;;;;;5111942;27;20292;-72
2023/11/05 17:50:33;;;;;;;;;;;;;;;;;;5092196;28;19923;-74
2023/11/05 17:52:59;;;;;;;;;;;;;;;;;;5090927;28;19999;-72
2023/11/05 17:55:26;;;;;;;;;;;;;;;;;;5091370;28;19912;-72
2023/11/05 17:57:51;;;;;;;;;;;;;;;;;;5091193;28;19915;-73
2023/11/05 18:00:17;;;;;;;;;;;;;;;;;;5090692;28;19908;-73
2023/11/05 18:02:43;;;;;;;;;;;;;;;;;;5091086;28;19919;-73
2023/11/05 18:05:09;;;;;;;;;;;;;;;;;;5091404;28;19913;-73
2023/11/05 18:07:35;;;;;;;;;;;;;;;;;;5090635;28;19909;-74
2023/11/05 18:10:04;;;;;;;;;;;;;;;;;;5091163;28;19931;-74
2023/11/05 18:12:30;;;;;;;;;;;;;;;;;;5089260;28;20369;-74
2023/11/05 18:14:56;;;;;;;;;;;;;;;;;;5090912;28;19923;-74
2023/11/05 18:17:22;;;;;;;;;;;;;;;;;;5090950;28;19908;-74
2023/11/05 18:19:48;;;;;;;;;;;;;;;;;;5090436;28;19930;-74
2023/11/05 18:22:14;;;;;;;;;;;;;;;;;;5090795;28;19915;-74
2023/11/05 18:24:40;;;;;;;;;;;;;;;;;;5091015;28;19909;-74
2023/11/05 18:27:06;;;;;;;;;;;;;;;;;;5090308;28;20318;-74
2023/11/05 18:29:32;;;;;;;;;;;;;;;;;;5090699;28;20300;-75